createdAt,value
2018-12-13T00:01:22.297Z,2.25
2018-12-13T00:03:50.644Z,2.38
2018-12-13T00:06:18.952Z,2.54
2018-12-13T00:08:47.418Z,2.67
2018-12-13T00:11:15.827Z,2.82
2018-12-13T00:13:44.160Z,2.98
2018-12-13T00:16:12.489Z,3.19
2018-12-13T00:18:40.788Z,3.24
2018-12-13T00:21:09.103Z,3.31
2018-12-13T00:23:37.455Z,3.34
2018-12-13T00:26:05.765Z,3.48
2018-12-13T00:28:34.109Z,3.30
2018-12-13T00:31:02.447Z,3.28
2018-12-13T00:33:30.841Z,3.20
2018-12-13T00:35:59.169Z,3.35
2018-12-13T00:38:27.492Z,3.31
2018-12-13T00:40:55.818Z,3.33
2018-12-13T00:43:24.255Z,3.34
2018-12-13T00:45:52.761Z,3.30
2018-12-13T00:48:21.084Z,3.25
2018-12-13T00:50:49.392Z,3.28
2018-12-13T00:53:17.707Z,3.24
2018-12-13T00:55:46.066Z,3.34
2018-12-13T00:58:14.427Z,3.29
2018-12-13T01:00:42.812Z,3.25
2018-12-13T01:03:11.143Z,3.31
2018-12-13T01:05:39.526Z,3.43
2018-12-13T01:08:07.864Z,3.36
2018-12-13T01:10:36.646Z,3.32
2018-12-13T01:13:05.173Z,3.42
2018-12-13T01:15:34.396Z,3.32
2018-12-13T01:18:02.788Z,3.11
2018-12-13T01:20:31.121Z,2.96
2018-12-13T01:22:59.443Z,2.68
2018-12-13T01:25:27.787Z,2.54
2018-12-13T01:27:56.119Z,2.54
2018-12-13T01:30:24.448Z,2.56
2018-12-13T01:32:52.807Z,2.65
2018-12-13T01:35:21.187Z,2.79
2018-12-13T01:37:49.534Z,2.96
2018-12-13T01:40:17.852Z,3.02
2018-12-13T01:42:46.193Z,3.21
2018-12-13T01:45:14.486Z,3.30
2018-12-13T01:47:42.847Z,3.28
2018-12-13T01:50:11.339Z,3.28
2018-12-13T01:52:39.661Z,3.27
2018-12-13T01:55:08.050Z,3.04
2018-12-13T01:57:36.383Z,2.96
2018-12-13T02:00:05.905Z,2.70
2018-12-13T02:02:34.235Z,2.57
2018-12-13T02:05:02.553Z,2.67
2018-12-13T02:07:30.963Z,2.57
2018-12-13T02:09:59.265Z,2.51
2018-12-13T02:12:27.653Z,2.42
2018-12-13T02:14:55.994Z,2.35
2018-12-13T02:17:24.328Z,2.35
2018-12-13T02:19:52.652Z,2.14
2018-12-13T02:22:20.976Z,2.04
2018-12-13T02:24:49.343Z,2.04
2018-12-13T02:27:17.770Z,1.94
2018-12-13T02:29:46.087Z,1.97
2018-12-13T02:32:14.405Z,1.98
2018-12-13T02:34:42.732Z,1.74
2018-12-13T02:37:11.146Z,1.72
2018-12-13T02:39:39.524Z,1.71
2018-12-13T02:42:07.909Z,1.71
2018-12-13T02:44:36.276Z,1.81
2018-12-13T02:47:05.587Z,1.80
2018-12-13T02:49:33.915Z,1.83
2018-12-13T02:52:02.237Z,1.83
2018-12-13T02:54:30.551Z,1.91
2018-12-13T02:56:58.890Z,1.80
2018-12-13T02:59:27.206Z,1.86
2018-12-13T03:01:55.587Z,1.71
2018-12-13T03:04:24.095Z,1.65
2018-12-13T03:06:52.481Z,1.49
2018-12-13T03:09:20.794Z,1.37
2018-12-13T03:11:49.115Z,1.15
2018-12-13T03:14:17.524Z,0.94
2018-12-13T03:16:45.840Z,0.81
2018-12-13T03:19:14.264Z,0.72
2018-12-13T03:21:42.583Z,0.66
2018-12-13T03:24:10.956Z,0.62
2018-12-13T03:26:39.256Z,0.73
2018-12-13T03:29:07.568Z,0.73
2018-12-13T03:31:35.885Z,0.59
2018-12-13T03:34:04.384Z,0.69
2018-12-13T03:36:32.825Z,0.79
2018-12-13T03:39:01.401Z,0.67
2018-12-13T03:41:29.807Z,0.74
2018-12-13T03:43:58.155Z,0.78
2018-12-13T03:46:26.503Z,0.68
2018-12-13T03:48:54.820Z,0.64
2018-12-13T03:51:23.219Z,0.44
2018-12-13T03:53:51.798Z,0.38
2018-12-13T03:56:20.123Z,0.20
2018-12-13T03:58:48.458Z,0.06
2018-12-13T04:01:16.856Z,0.08
2018-12-13T04:03:45.216Z,-0.06
2018-12-13T04:06:13.527Z,0.02
2018-12-13T04:08:41.971Z,-0.12
2018-12-13T04:11:10.345Z,-0.02
2018-12-13T04:13:38.816Z,-0.20
2018-12-13T04:16:07.198Z,-0.24
2018-12-13T04:18:35.540Z,-0.17
2018-12-13T04:21:03.879Z,-0.25
2018-12-13T04:23:32.227Z,-0.30
2018-12-13T04:26:00.577Z,-0.40
2018-12-13T04:28:28.896Z,-0.36
2018-12-13T04:30:57.400Z,-0.34
2018-12-13T04:33:25.771Z,0.05
2018-12-13T04:35:54.108Z,0.12
2018-12-13T04:38:22.458Z,-0.10
2018-12-13T04:40:50.816Z,-0.14
2018-12-13T04:43:19.164Z,-0.20
2018-12-13T04:45:47.524Z,-0.37
2018-12-13T04:48:15.895Z,-0.46
2018-12-13T04:50:44.217Z,-0.54
2018-12-13T04:53:12.561Z,-0.59
2018-12-13T04:55:40.887Z,-0.64
2018-12-13T04:58:09.192Z,-0.42
2018-12-13T05:00:37.597Z,-0.18
2018-12-13T05:03:05.945Z,-0.15
2018-12-13T05:05:34.300Z,-0.15
2018-12-13T05:08:02.652Z,-0.19
2018-12-13T05:10:45.635Z,-0.14
2018-12-13T05:13:13.971Z,-0.23
2018-12-13T05:15:42.331Z,-0.25
2018-12-13T05:18:10.668Z,-0.22
2018-12-13T05:20:39.067Z,-0.32
2018-12-13T05:23:07.516Z,-0.17
2018-12-13T05:25:36.342Z,-0.10
2018-12-13T05:28:04.884Z,-0.17
2018-12-13T05:30:33.235Z,-0.21
2018-12-13T05:33:01.655Z,-0.47
2018-12-13T05:35:30.038Z,-0.65
2018-12-13T05:37:58.412Z,-0.72
2018-12-13T05:40:26.743Z,-0.84
2018-12-13T05:42:55.106Z,-0.99
2018-12-13T05:45:23.446Z,-1.17
2018-12-13T05:47:51.784Z,-1.23
2018-12-13T05:50:20.224Z,-1.31
2018-12-13T05:52:48.562Z,-1.39
2018-12-13T05:55:16.987Z,-1.42
2018-12-13T05:57:45.302Z,-1.51
2018-12-13T06:00:14.138Z,-1.55
2018-12-13T06:02:42.466Z,-1.52
2018-12-13T06:05:10.900Z,-1.35
2018-12-13T06:07:39.262Z,-1.50
2018-12-13T06:10:07.885Z,-1.51
2018-12-13T06:12:36.263Z,-1.47
2018-12-13T06:15:05.816Z,-1.43
2018-12-13T06:17:34.163Z,-1.24
2018-12-13T06:20:02.550Z,-1.27
2018-12-13T06:22:31.007Z,-1.26
2018-12-13T06:24:59.439Z,-1.29
2018-12-13T06:27:27.787Z,-1.22
2018-12-13T06:29:59.090Z,-0.89
2018-12-13T06:32:26.484Z,-0.74
2018-12-13T06:34:54.847Z,-0.52
2018-12-13T06:37:23.170Z,-0.31
2018-12-13T06:39:51.739Z,-0.31
2018-12-13T06:42:20.091Z,-0.32
2018-12-13T06:44:48.527Z,-0.45
2018-12-13T06:47:16.871Z,-0.60
2018-12-13T06:49:45.291Z,-0.80
2018-12-13T06:52:13.814Z,-0.76
2018-12-13T06:54:42.254Z,-0.64
2018-12-13T06:57:10.759Z,-0.59
2018-12-13T06:59:39.185Z,-0.62
2018-12-13T07:02:07.522Z,-0.79
2018-12-13T07:04:35.918Z,-0.94
2018-12-13T07:07:04.231Z,-0.92
2018-12-13T07:09:32.567Z,-0.67
2018-12-13T07:12:00.928Z,-0.74
2018-12-13T07:14:29.327Z,-0.87
2018-12-13T07:16:57.737Z,-1.06
2018-12-13T07:19:26.054Z,-1.22
2018-12-13T07:21:54.385Z,-1.25
2018-12-13T07:24:22.712Z,-1.14
2018-12-13T07:26:51.067Z,-1.18
2018-12-13T07:29:19.511Z,-1.26
2018-12-13T07:31:47.849Z,-1.07
2018-12-13T07:34:16.229Z,-1.17
2018-12-13T07:36:44.596Z,-1.07
2018-12-13T07:39:12.924Z,-1.06
2018-12-13T07:41:41.244Z,-1.10
2018-12-13T07:44:09.606Z,-1.04
2018-12-13T07:46:37.923Z,-0.96
2018-12-13T07:49:06.396Z,-0.92
2018-12-13T07:51:34.729Z,-0.80
2018-12-13T07:54:03.066Z,-0.77
2018-12-13T07:56:31.504Z,-0.64
2018-12-13T07:58:59.825Z,-0.82
2018-12-13T08:01:28.166Z,-0.88
2018-12-13T08:03:56.541Z,-0.92
2018-12-13T08:06:24.923Z,-0.89
2018-12-13T08:08:53.399Z,-0.96
2018-12-13T08:11:21.822Z,-0.99
2018-12-13T08:13:50.177Z,-0.90
2018-12-13T08:16:18.507Z,-0.98
2018-12-13T08:18:46.829Z,-1.00
2018-12-13T08:21:15.296Z,-0.85
2018-12-13T08:23:44.659Z,-0.13
2018-12-13T08:26:13.099Z,0.01
2018-12-13T08:28:41.511Z,0.30
2018-12-13T08:31:09.830Z,0.46
2018-12-13T08:33:38.142Z,0.63
2018-12-13T08:36:06.499Z,0.66
2018-12-13T08:38:34.824Z,0.68
2018-12-13T08:41:03.140Z,0.79
2018-12-13T08:43:31.488Z,0.77
2018-12-13T08:45:59.951Z,0.74
2018-12-13T08:48:28.569Z,0.64
2018-12-13T08:50:56.903Z,0.63
2018-12-13T08:53:25.454Z,0.80
2018-12-13T08:55:53.776Z,0.80
2018-12-13T08:58:22.241Z,1.05
2018-12-13T09:00:50.558Z,1.20
2018-12-13T09:03:18.932Z,1.22
2018-12-13T09:05:47.223Z,1.11
2018-12-13T09:08:15.583Z,1.21
2018-12-13T09:10:43.938Z,1.24
2018-12-13T09:13:12.280Z,1.24
2018-12-13T09:15:40.643Z,1.22
2018-12-13T09:18:09.060Z,1.26
2018-12-13T09:20:37.400Z,1.45
2018-12-13T09:23:05.718Z,1.51
2018-12-13T09:25:34.081Z,1.56
2018-12-13T09:28:02.514Z,1.51
2018-12-13T09:30:30.835Z,1.59
2018-12-13T09:32:59.187Z,1.57
2018-12-13T09:35:27.572Z,1.69
2018-12-13T09:37:55.911Z,1.81
2018-12-13T09:40:24.260Z,1.87
2018-12-13T09:42:52.593Z,2.03
2018-12-13T09:45:20.925Z,2.07
2018-12-13T09:47:49.328Z,2.06
2018-12-13T09:50:17.657Z,2.17
2018-12-13T09:52:45.971Z,2.25
2018-12-13T09:55:14.285Z,2.47
2018-12-13T09:57:42.611Z,2.41
2018-12-13T10:00:11.288Z,2.54
2018-12-13T10:02:39.618Z,2.63
2018-12-13T10:05:08.025Z,2.77
2018-12-13T10:07:36.395Z,2.69
2018-12-13T10:10:05.246Z,2.86
2018-12-13T10:12:33.603Z,2.81
2018-12-13T10:15:01.946Z,2.92
2018-12-13T10:17:30.375Z,2.94
2018-12-13T10:19:58.779Z,3.03
2018-12-13T10:22:28.606Z,2.99
2018-12-13T10:24:57.207Z,3.11
2018-12-13T10:27:25.648Z,3.13
2018-12-13T10:29:53.965Z,3.21
2018-12-13T10:32:22.325Z,3.27
2018-12-13T10:34:50.641Z,3.31
2018-12-13T10:37:18.964Z,3.42
2018-12-13T10:39:47.411Z,3.67
2018-12-13T10:42:15.718Z,3.75
2018-12-13T10:44:44.037Z,3.63
2018-12-13T10:47:12.388Z,3.79
2018-12-13T10:49:40.743Z,3.73
2018-12-13T10:52:09.113Z,4.06
2018-12-13T10:54:37.539Z,4.15
2018-12-13T10:57:06.028Z,4.08
2018-12-13T10:59:34.868Z,4.24
2018-12-13T11:02:05.171Z,4.35
2018-12-13T11:04:33.533Z,4.19
2018-12-13T11:07:01.952Z,4.03
2018-12-13T11:09:30.251Z,4.48
2018-12-13T11:11:58.739Z,4.29
2018-12-13T11:14:27.084Z,4.52
2018-12-13T11:16:55.528Z,4.38
2018-12-13T11:19:23.872Z,4.58
2018-12-13T11:21:52.267Z,4.70
2018-12-13T11:24:20.620Z,4.51
2018-12-13T11:26:48.944Z,4.35
2018-12-13T11:32:34.383Z,4.15
2018-12-13T11:35:02.699Z,4.21
2018-12-13T11:37:31.019Z,3.98
2018-12-13T11:39:59.375Z,4.23
2018-12-13T11:42:27.753Z,4.43
2018-12-13T11:44:56.200Z,4.84
2018-12-13T11:47:24.552Z,5.13
2018-12-13T11:49:53.027Z,4.77
2018-12-13T11:52:22.116Z,4.92
2018-12-13T11:54:50.434Z,5.36
2018-12-13T11:57:18.860Z,4.69
2018-12-13T11:59:47.201Z,5.08
2018-12-13T12:02:15.531Z,5.15
2018-12-13T12:04:43.911Z,5.31
2018-12-13T12:07:12.315Z,5.23
2018-12-13T12:09:40.644Z,5.71
2018-12-13T12:12:09.092Z,5.04
2018-12-13T12:14:37.435Z,5.79
2018-12-13T12:17:05.807Z,6.27
2018-12-13T12:19:34.137Z,6.17
2018-12-13T12:22:02.470Z,5.84
2018-12-13T12:24:30.860Z,5.96
2018-12-13T12:26:59.219Z,5.89
2018-12-13T12:29:27.584Z,6.05
2018-12-13T12:31:55.955Z,5.36
2018-12-13T12:34:24.585Z,5.22
2018-12-13T12:36:52.939Z,5.54
2018-12-13T12:39:21.406Z,6.29
2018-12-13T12:41:49.842Z,6.21
2018-12-13T12:44:18.265Z,6.26
2018-12-13T12:46:46.608Z,6.11
2018-12-13T12:49:14.940Z,5.77
2018-12-13T12:51:43.292Z,5.66
2018-12-13T12:54:11.628Z,5.43
2018-12-13T12:56:39.962Z,5.20
2018-12-13T12:59:08.283Z,4.85
2018-12-13T13:01:36.636Z,5.14
2018-12-13T13:04:05.040Z,4.94
2018-12-13T13:06:33.384Z,5.15
2018-12-13T13:09:01.767Z,5.12
2018-12-13T13:11:30.099Z,5.39
2018-12-13T13:13:58.441Z,5.33
2018-12-13T13:16:26.816Z,5.41
2018-12-13T13:18:55.188Z,5.44
2018-12-13T13:21:23.557Z,5.26
2018-12-13T13:23:52.088Z,5.42
2018-12-13T13:26:20.398Z,5.29
2018-12-13T13:28:48.743Z,5.21
2018-12-13T13:31:17.096Z,5.15
2018-12-13T13:33:45.501Z,5.09
2018-12-13T13:36:13.824Z,5.08
2018-12-13T13:38:42.179Z,5.15
2018-12-13T13:41:10.518Z,4.87
2018-12-13T13:43:38.940Z,4.92
2018-12-13T13:46:07.398Z,4.90
2018-12-13T13:48:35.704Z,4.87
2018-12-13T13:51:04.072Z,4.88
2018-12-13T13:53:32.438Z,4.76
2018-12-13T13:56:00.720Z,4.77
2018-12-13T13:58:29.059Z,4.59
2018-12-13T14:00:57.400Z,4.49
2018-12-13T14:03:25.778Z,4.52
2018-12-13T14:05:54.163Z,4.56
2018-12-13T14:08:22.539Z,4.58
2018-12-13T14:10:50.859Z,4.50
2018-12-13T14:13:19.223Z,4.52
2018-12-13T14:15:47.554Z,4.41
2018-12-13T14:18:15.955Z,4.42
2018-12-13T14:20:44.298Z,4.26
2018-12-13T14:23:12.959Z,4.24
2018-12-13T14:25:41.318Z,4.30
2018-12-13T14:28:09.645Z,4.20
2018-12-13T14:33:15.929Z,4.21
2018-12-13T14:35:44.282Z,4.06
2018-12-13T14:38:12.617Z,4.00
2018-12-13T14:40:40.947Z,4.04
2018-12-13T14:43:09.351Z,3.97
2018-12-13T14:45:37.721Z,3.91
2018-12-13T14:48:06.218Z,3.82
2018-12-13T14:50:34.554Z,3.90
2018-12-13T14:53:02.917Z,3.78
2018-12-13T14:55:31.282Z,3.63
2018-12-13T14:57:59.624Z,3.55
2018-12-13T15:00:27.958Z,3.37
2018-12-13T15:02:56.401Z,3.30
2018-12-13T15:05:24.945Z,3.10
2018-12-13T15:07:53.293Z,2.82
2018-12-13T15:10:21.730Z,2.50
2018-12-13T15:12:50.107Z,2.72
2018-12-13T15:15:18.587Z,2.65
2018-12-13T15:17:46.929Z,2.73
2018-12-13T15:20:15.255Z,2.68
2018-12-13T15:22:43.615Z,2.68
2018-12-13T15:25:11.965Z,2.49
2018-12-13T15:27:40.728Z,2.48
2018-12-13T15:30:09.259Z,2.46
2018-12-13T15:32:37.600Z,2.52
2018-12-13T15:35:06.161Z,2.60
2018-12-13T15:37:34.504Z,2.84
2018-12-13T15:40:02.911Z,2.92
2018-12-13T15:42:31.323Z,2.90
2018-12-13T15:44:59.761Z,2.72
2018-12-13T15:47:28.168Z,2.61
2018-12-13T15:49:56.627Z,2.50
2018-12-13T15:52:24.978Z,2.41
2018-12-13T15:54:53.369Z,2.48
2018-12-13T15:57:21.750Z,2.49
2018-12-13T15:59:50.087Z,2.22
2018-12-13T16:02:18.417Z,2.19
2018-12-13T16:04:46.790Z,2.10
2018-12-13T16:07:15.175Z,1.96
2018-12-13T16:09:43.553Z,1.71
2018-12-13T16:12:11.941Z,1.67
2018-12-13T16:14:40.522Z,1.49
2018-12-13T16:17:08.857Z,1.48
2018-12-13T16:19:37.281Z,1.70
2018-12-13T16:22:05.609Z,1.87
2018-12-13T16:24:36.661Z,1.93
2018-12-13T16:27:05.247Z,2.10
2018-12-13T16:29:33.548Z,2.16
2018-12-13T16:32:02.036Z,2.28
2018-12-13T16:34:30.508Z,2.37
2018-12-13T16:36:58.825Z,2.25
2018-12-13T16:39:27.220Z,2.36
2018-12-13T16:41:55.594Z,2.25
2018-12-13T16:44:24.026Z,2.10
2018-12-13T16:46:52.547Z,2.06
2018-12-13T16:49:20.871Z,1.72
2018-12-13T16:51:49.264Z,1.39
2018-12-13T16:54:17.599Z,1.06
2018-12-13T16:56:45.948Z,0.84
2018-12-13T16:59:14.330Z,0.67
2018-12-13T17:01:42.669Z,0.50
2018-12-13T17:04:10.981Z,0.30
2018-12-13T17:06:39.306Z,0.15
2018-12-13T17:09:07.745Z,0.13
2018-12-13T17:11:36.104Z,0.53
2018-12-13T17:14:04.650Z,0.73
2018-12-13T17:16:33.412Z,0.86
2018-12-13T17:19:01.760Z,1.09
2018-12-13T17:21:30.137Z,1.06
2018-12-13T17:23:58.529Z,1.62
2018-12-13T17:26:26.917Z,1.85
2018-12-13T17:28:55.504Z,2.07
2018-12-13T17:31:23.832Z,2.18
2018-12-13T17:33:52.299Z,2.20
2018-12-13T17:36:20.655Z,2.25
2018-12-13T17:38:48.977Z,2.28
2018-12-13T17:41:17.337Z,2.47
2018-12-13T17:43:45.668Z,2.53
2018-12-13T17:46:14.061Z,2.51
2018-12-13T17:48:42.402Z,2.46
2018-12-13T17:51:10.744Z,2.51
2018-12-13T17:53:39.204Z,2.55
2018-12-13T17:56:07.520Z,2.69
2018-12-13T17:58:35.907Z,2.64
2018-12-13T18:01:04.279Z,2.65
2018-12-13T18:03:32.774Z,2.41
2018-12-13T18:06:01.139Z,2.30
2018-12-13T18:08:29.633Z,2.23
2018-12-13T18:10:57.980Z,2.40
2018-12-13T18:13:27.680Z,2.34
2018-12-13T18:15:56.141Z,2.37
2018-12-13T18:18:24.506Z,2.42
2018-12-13T18:20:52.924Z,2.49
2018-12-13T18:23:21.256Z,2.37
2018-12-13T18:25:50.040Z,2.20
2018-12-13T18:28:18.401Z,2.04
2018-12-13T18:30:46.814Z,1.84
2018-12-13T18:33:15.141Z,1.74
2018-12-13T18:35:43.472Z,1.61
2018-12-13T18:38:12.120Z,1.55
2018-12-13T18:40:40.465Z,1.62
2018-12-13T18:43:08.971Z,1.60
2018-12-13T18:45:37.640Z,1.58
2018-12-13T18:48:06.082Z,1.53
2018-12-13T18:50:34.594Z,1.52
2018-12-13T18:53:02.997Z,1.50
2018-12-13T18:55:31.479Z,1.49
2018-12-13T18:57:59.854Z,1.49
2018-12-13T19:00:28.418Z,1.52
2018-12-13T19:02:56.875Z,1.51
2018-12-13T19:05:25.211Z,1.49
2018-12-13T19:07:53.562Z,1.43
2018-12-13T19:10:21.879Z,1.45
2018-12-13T19:12:50.314Z,1.40
2018-12-13T19:15:18.656Z,1.39
2018-12-13T19:17:47.068Z,1.36
2018-12-13T19:20:15.431Z,1.30
2018-12-13T19:22:43.834Z,1.29
2018-12-13T19:25:12.178Z,1.38
2018-12-13T19:27:40.568Z,1.42
2018-12-13T19:30:09.096Z,1.44
2018-12-13T19:32:37.415Z,1.71
2018-12-13T19:35:05.887Z,1.84
2018-12-13T19:37:34.285Z,1.80
2018-12-13T19:40:02.612Z,1.79
2018-12-13T19:42:31.018Z,1.70
2018-12-13T19:44:59.364Z,1.74
2018-12-13T19:47:27.717Z,1.82
2018-12-13T19:49:56.089Z,2.12
2018-12-13T19:52:24.406Z,2.16
2018-12-13T19:54:52.761Z,2.35
2018-12-13T19:57:21.122Z,2.36
2018-12-13T19:59:49.622Z,2.21
2018-12-13T20:02:18.008Z,2.10
2018-12-13T20:04:46.350Z,2.11
2018-12-13T20:07:14.784Z,2.17
2018-12-13T20:09:43.357Z,2.00
2018-12-13T20:12:11.697Z,1.89
2018-12-13T20:14:40.059Z,1.90
2018-12-13T20:17:08.460Z,2.02
2018-12-13T20:19:36.788Z,2.10
2018-12-13T20:22:05.163Z,2.11
2018-12-13T20:24:33.513Z,2.09
2018-12-13T20:27:02.012Z,2.20
2018-12-13T20:29:30.443Z,2.16
2018-12-13T20:31:58.929Z,2.14
2018-12-13T20:34:27.259Z,2.08
2018-12-13T20:36:55.651Z,2.01
2018-12-13T20:39:24.008Z,2.01
2018-12-13T20:41:52.403Z,1.97
2018-12-13T20:44:20.819Z,1.93
2018-12-13T20:46:49.139Z,2.02
2018-12-13T20:49:17.536Z,1.94
2018-12-13T20:51:45.960Z,1.92
2018-12-13T20:54:14.364Z,1.94
2018-12-13T20:56:42.720Z,1.96
2018-12-13T20:59:11.215Z,1.93
2018-12-13T21:01:39.569Z,1.99
2018-12-13T21:04:07.929Z,1.94
2018-12-13T21:06:36.298Z,2.06
2018-12-13T21:09:06.619Z,1.92
2018-12-13T21:11:34.958Z,1.87
2018-12-13T21:14:03.271Z,1.87
2018-12-13T21:16:31.637Z,1.92
2018-12-13T21:19:00.015Z,1.86
2018-12-13T21:21:28.423Z,1.94
2018-12-13T21:23:56.763Z,1.93
2018-12-13T21:26:25.124Z,1.91
2018-12-13T21:28:53.481Z,1.90
2018-12-13T21:31:21.802Z,1.94
2018-12-13T21:33:50.229Z,2.08
2018-12-13T21:36:18.889Z,2.14
2018-12-13T21:38:47.333Z,2.13
2018-12-13T21:41:15.689Z,2.20
2018-12-13T21:43:44.059Z,2.21
2018-12-13T21:46:12.428Z,2.13
2018-12-13T21:48:40.827Z,2.22
2018-12-13T21:51:09.152Z,2.26
2018-12-13T21:53:37.520Z,2.31
2018-12-13T21:56:05.860Z,2.28
2018-12-13T21:58:34.200Z,2.33
2018-12-13T22:01:02.528Z,2.31
2018-12-13T22:03:30.858Z,2.42
2018-12-13T22:05:59.230Z,2.48
2018-12-13T22:08:27.572Z,2.42
2018-12-13T22:10:55.901Z,2.41
2018-12-13T22:13:24.227Z,2.40
2018-12-13T22:15:52.570Z,2.30
2018-12-13T22:18:20.979Z,2.29
2018-12-13T22:20:49.313Z,2.25
2018-12-13T22:23:17.803Z,2.21
2018-12-13T22:25:46.116Z,2.29
2018-12-13T22:28:15.441Z,2.28
2018-12-13T22:30:43.823Z,2.27
2018-12-13T22:33:12.223Z,2.41
2018-12-13T22:35:40.686Z,2.39
2018-12-13T22:38:09.193Z,2.26
2018-12-13T22:40:37.527Z,2.24
2018-12-13T22:43:05.863Z,2.24
2018-12-13T22:45:34.229Z,2.22
2018-12-13T22:48:02.545Z,2.23
2018-12-13T22:50:30.863Z,2.51
2018-12-13T22:52:59.212Z,2.50
2018-12-13T22:55:27.563Z,2.55
2018-12-13T22:57:55.905Z,2.63
2018-12-13T23:00:24.487Z,2.63
2018-12-13T23:02:52.905Z,2.74
2018-12-13T23:05:21.279Z,2.77
2018-12-13T23:07:49.696Z,2.71
2018-12-13T23:10:18.035Z,2.66
2018-12-13T23:12:46.376Z,2.78
2018-12-13T23:15:14.701Z,2.82
2018-12-13T23:17:43.047Z,2.85
2018-12-13T23:20:11.373Z,2.85
2018-12-13T23:22:39.720Z,2.75
2018-12-13T23:25:08.139Z,2.83
2018-12-13T23:27:36.471Z,2.70
2018-12-13T23:30:09.123Z,2.75
2018-12-13T23:32:37.449Z,2.82
2018-12-13T23:35:05.911Z,2.70
2018-12-13T23:37:34.248Z,2.59
2018-12-13T23:40:02.563Z,2.56
2018-12-13T23:42:30.903Z,2.56
2018-12-13T23:44:59.352Z,2.49
2018-12-13T23:47:27.693Z,2.49
2018-12-13T23:49:56.072Z,2.49
2018-12-13T23:52:24.455Z,2.47
2018-12-13T23:54:52.763Z,2.45
2018-12-13T23:57:21.076Z,2.43
2018-12-13T23:59:49.407Z,2.48
